Time;durP1;ratioP1;P1;durP2;ratioP2;P2;SDS_P1;SDS_P2;PMS_P1;PMS_P2;Temp;Humidity;BMP_temperature;BMP_pressure;BME280_temperature;BME280_humidity;BME280_pressure;Samples;Min_cycle;Max_cycle;Signal;HPM_P1;HPM_P2
2023/07/05 00:02:15;;;;;;;;;;;14.60;99.90;;;;;;5092799;28;20382;-65
2023/07/05 00:04:41;;;;;;;;;;;14.70;99.90;;;;;;5093149;28;20008;-64
2023/07/05 00:07:08;;;;;;;;;;;14.80;99.90;;;;;;5093027;28;19989;-65
2023/07/05 00:09:34;;;;;;;;;;;14.90;99.90;;;;;;5092960;28;20034;-65
2023/07/05 00:12:01;;;;;;;;;;;14.90;99.90;;;;;;5093079;28;19995;-65
2023/07/05 00:14:29;;;;;;;;;;;15.00;99.90;;;;;;5092923;28;19908;-63
2023/07/05 00:16:55;;;;;;;;;;;15.20;99.90;;;;;;5093061;28;19909;-65
2023/07/05 00:19:22;;;;;;;;;;;15.20;99.90;;;;;;5092134;28;19909;-66
2023/07/05 00:21:49;;;;;;;;;;;15.30;99.90;;;;;;5092781;28;19963;-65
2023/07/05 00:24:16;;;;;;;;;;;15.30;99.90;;;;;;5092734;28;20266;-66
2023/07/05 00:26:43;;;;;;;;;;;15.50;99.90;;;;;;5092926;28;19911;-65
2023/07/05 00:29:09;;;;;;;;;;;15.50;99.90;;;;;;5092437;28;20375;-67
2023/07/05 00:31:36;;;;;;;;;;;15.70;99.90;;;;;;5092486;28;19908;-66
2023/07/05 00:34:02;;;;;;;;;;;15.80;99.90;;;;;;5092654;28;19908;-67
2023/07/05 00:36:29;;;;;;;;;;;15.90;99.90;;;;;;5092380;28;19909;-65
2023/07/05 00:38:56;;;;;;;;;;;16.00;99.90;;;;;;5092465;28;20002;-66
2023/07/05 00:41:23;;;;;;;;;;;16.20;99.90;;;;;;5092618;28;19969;-67
2023/07/05 00:43:49;;;;;;;;;;;16.30;99.90;;;;;;5092446;28;20139;-65
2023/07/05 00:46:19;;;;;;;;;;;16.30;99.90;;;;;;5092545;28;19916;-65
2023/07/05 00:48:52;;;;;;;;;;;16.40;99.90;;;;;;5092480;28;19912;-66
2023/07/05 00:51:21;;;;;;;;;;;16.60;99.90;;;;;;5092534;28;19909;-66
2023/07/05 00:53:48;;;;;;;;;;;16.60;99.90;;;;;;5092747;28;19909;-66
2023/07/05 00:56:26;;;;;;;;;;;16.80;99.90;;;;;;5092647;28;20281;-67
2023/07/05 00:58:53;;;;;;;;;;;16.90;99.90;;;;;;5092599;28;20246;-68
2023/07/05 01:01:20;;;;;;;;;;;17.00;99.90;;;;;;5092289;28;19917;-67
2023/07/05 01:03:49;;;;;;;;;;;17.20;99.90;;;;;;5092399;28;19994;-66
2023/07/05 01:06:16;;;;;;;;;;;17.20;99.90;;;;;;5092188;28;19908;-66
2023/07/05 01:08:44;;;;;;;;;;;17.40;99.90;;;;;;5092277;28;19908;-65
2023/07/05 01:11:29;;;;;;;;;;;17.60;99.90;;;;;;5092322;28;19909;-65
2023/07/05 01:14:15;;;;;;;;;;;17.70;99.90;;;;;;5092583;28;19908;-64
2023/07/05 01:16:51;;;;;;;;;;;17.90;99.90;;;;;;5092334;28;20384;-66
2023/07/05 01:19:18;;;;;;;;;;;18.10;99.90;;;;;;5092029;28;19953;-66
2023/07/05 01:21:52;;;;;;;;;;;18.30;99.90;;;;;;5092237;28;19923;-64
2023/07/05 01:24:19;;;;;;;;;;;18.40;99.90;;;;;;5092352;28;20034;-65
2023/07/05 01:26:45;;;;;;;;;;;18.50;99.90;;;;;;5092253;28;19908;-64
2023/07/05 01:29:21;;;;;;;;;;;18.70;99.90;;;;;;5074645;28;19917;-65
2023/07/05 01:31:57;;;;;;;;;;;18.70;99.90;;;;;;5095836;28;19908;-64
2023/07/05 01:34:46;;;;;;;;;;;18.80;99.90;;;;;;5095808;28;19935;-64
2023/07/05 01:37:31;;;;;;;;;;;18.90;99.90;;;;;;5087727;28;19908;-68
2023/07/05 01:39:58;;;;;;;;;;;18.90;99.90;;;;;;5077268;28;19909;-66
2023/07/05 01:42:27;;;;;;;;;;;19.00;99.90;;;;;;5095566;28;20003;-65
2023/07/05 01:44:53;;;;;;;;;;;19.10;99.90;;;;;;5095275;28;19920;-67
2023/07/05 01:47:25;;;;;;;;;;;19.10;99.90;;;;;;5095879;28;20273;-64
2023/07/05 01:49:56;;;;;;;;;;;19.20;99.90;;;;;;5095470;28;19908;-68
2023/07/05 01:52:35;;;;;;;;;;;19.40;99.90;;;;;;5095401;28;19909;-65
2023/07/05 01:55:02;;;;;;;;;;;19.40;99.90;;;;;;5095633;28;20281;-64
2023/07/05 01:57:33;;;;;;;;;;;19.50;99.90;;;;;;5095208;28;19908;-64
2023/07/05 02:00:03;;;;;;;;;;;19.60;99.90;;;;;;5095255;28;19961;-64
2023/07/05 02:02:31;;;;;;;;;;;19.70;99.90;;;;;;5095291;28;19912;-69
2023/07/05 02:04:59;;;;;;;;;;;19.80;99.90;;;;;;5095100;28;19908;-65
2023/07/05 02:07:27;;;;;;;;;;;19.90;99.90;;;;;;5095296;28;20011;-63
2023/07/05 02:09:55;;;;;;;;;;;19.90;99.90;;;;;;5076924;28;19912;-67
2023/07/05 02:12:23;;;;;;;;;;;19.90;99.90;;;;;;5095080;28;19908;-66
2023/07/05 02:14:49;;;;;;;;;;;19.80;99.90;;;;;;5095028;28;19961;-65
2023/07/05 02:17:17;;;;;;;;;;;20.00;99.90;;;;;;5094631;28;19999;-63
2023/07/05 02:19:44;;;;;;;;;;;20.00;99.90;;;;;;5094779;28;20008;-64
2023/07/05 02:22:10;;;;;;;;;;;20.10;99.90;;;;;;5094875;28;19912;-64
2023/07/05 02:24:37;;;;;;;;;;;20.20;99.90;;;;;;5094682;28;19947;-65
2023/07/05 02:27:04;;;;;;;;;;;20.30;99.90;;;;;;5094881;28;19958;-66
2023/07/05 02:29:31;;;;;;;;;;;20.30;99.90;;;;;;5094601;28;20373;-65
2023/07/05 02:31:58;;;;;;;;;;;20.30;99.90;;;;;;5094604;28;19966;-65
2023/07/05 02:34:25;;;;;;;;;;;20.50;99.90;;;;;;5094797;28;19909;-64
2023/07/05 02:36:51;;;;;;;;;;;20.80;99.90;;;;;;5094582;28;19908;-65
2023/07/05 02:39:18;;;;;;;;;;;21.10;99.90;;;;;;5094277;28;20315;-65
2023/07/05 02:41:44;;;;;;;;;;;21.10;99.90;;;;;;5093445;28;20319;-65
2023/07/05 02:44:11;;;;;;;;;;;21.00;99.90;;;;;;5094321;28;19913;-67
2023/07/05 02:46:38;;;;;;;;;;;21.00;99.90;;;;;;5076049;28;19919;-64
2023/07/05 02:49:04;;;;;;;;;;;21.00;99.90;;;;;;5094431;28;19922;-64
2023/07/05 02:51:34;;;;;;;;;;;20.90;99.90;;;;;;5094325;28;20254;-65
2023/07/05 02:54:01;;;;;;;;;;;21.00;99.90;;;;;;5093744;28;19948;-66
2023/07/05 02:56:27;;;;;;;;;;;21.20;99.90;;;;;;5094219;28;19965;-65
2023/07/05 02:58:54;;;;;;;;;;;21.30;99.90;;;;;;5094057;28;20008;-66
2023/07/05 03:01:21;;;;;;;;;;;21.80;99.90;;;;;;5094296;28;19916;-63
2023/07/05 03:03:47;;;;;;;;;;;22.40;99.70;;;;;;5093757;28;20494;-64
2023/07/05 03:06:14;;;;;;;;;;;22.90;99.10;;;;;;5093868;28;20357;-65
2023/07/05 03:08:41;;;;;;;;;;;23.50;97.80;;;;;;5075564;28;20291;-64
2023/07/05 03:11:07;;;;;;;;;;;23.60;97.00;;;;;;5093712;28;20011;-64
2023/07/05 03:13:34;;;;;;;;;;;23.70;96.90;;;;;;5093868;28;20003;-64
2023/07/05 03:16:01;;;;;;;;;;;23.70;96.60;;;;;;5094001;28;20312;-65
2023/07/05 03:18:28;;;;;;;;;;;23.60;96.50;;;;;;5093710;28;19909;-65
2023/07/05 03:20:55;;;;;;;;;;;23.50;96.80;;;;;;5093466;28;19916;-66
2023/07/05 03:23:22;;;;;;;;;;;23.70;96.30;;;;;;5093578;28;20003;-65
2023/07/05 03:25:59;;;;;;;;;;;24.00;96.20;;;;;;5093445;28;19908;-66
2023/07/05 03:28:28;;;;;;;;;;;24.50;95.70;;;;;;5075565;28;20385;-64
2023/07/05 03:31:15;;;;;;;;;;;25.40;95.20;;;;;;5093480;28;19915;-65
2023/07/05 03:33:42;;;;;;;;;;;25.90;92.90;;;;;;5092945;28;19939;-66
2023/07/05 03:36:13;;;;;;;;;;;25.50;92.90;;;;;;5093446;28;20357;-65
2023/07/05 03:38:39;;;;;;;;;;;25.80;92.80;;;;;;5093578;28;19908;-64
2023/07/05 03:41:07;;;;;;;;;;;26.70;91.60;;;;;;5093276;28;20369;-65
2023/07/05 03:43:35;;;;;;;;;;;27.00;90.70;;;;;;5075265;28;20002;-64
2023/07/05 03:46:03;;;;;;;;;;;27.50;90.00;;;;;;5093176;28;19920;-65
2023/07/05 03:48:31;;;;;;;;;;;28.10;89.70;;;;;;5093203;28;20375;-66
2023/07/05 03:50:58;;;;;;;;;;;28.90;88.20;;;;;;5092874;28;19989;-64
2023/07/05 03:53:25;;;;;;;;;;;29.80;83.90;;;;;;5092302;28;20001;-64
2023/07/05 03:55:52;;;;;;;;;;;30.10;82.20;;;;;;5093407;28;19908;-65
2023/07/05 03:58:19;;;;;;;;;;;30.70;81.10;;;;;;5093097;28;19958;-68
2023/07/05 04:00:46;;;;;;;;;;;30.50;80.10;;;;;;5074818;28;19916;-66
2023/07/05 04:03:13;;;;;;;;;;;30.80;79.80;;;;;;5093203;28;19953;-64
2023/07/05 04:05:40;;;;;;;;;;;31.40;79.20;;;;;;5093080;28;19908;-65
2023/07/05 04:08:07;;;;;;;;;;;31.00;76.00;;;;;;5092960;28;20323;-64
2023/07/05 04:10:33;;;;;;;;;;;29.50;78.50;;;;;;5092950;28;19912;-65
2023/07/05 04:13:00;;;;;;;;;;;28.20;81.00;;;;;;5092867;28;19923;-66
2023/07/05 04:15:27;;;;;;;;;;;26.90;82.90;;;;;;5092822;28;19908;-65
2023/07/05 04:17:53;;;;;;;;;;;25.90;85.50;;;;;;5092995;28;19914;-64
2023/07/05 04:20:20;;;;;;;;;;;25.10;88.20;;;;;;5092701;28;20014;-64
2023/07/05 04:22:46;;;;;;;;;;;24.50;90.00;;;;;;5092605;28;19974;-65
2023/07/05 04:25:13;;;;;;;;;;;23.90;91.00;;;;;;5092766;28;19951;-66
2023/07/05 04:27:40;;;;;;;;;;;23.50;91.80;;;;;;5092444;28;19916;-65
2023/07/05 04:30:07;;;;;;;;;;;23.00;92.50;;;;;;5092608;28;19908;-63
2023/07/05 04:32:33;;;;;;;;;;;22.70;93.00;;;;;;5092942;28;19915;-64
2023/07/05 04:35:00;;;;;;;;;;;22.30;94.00;;;;;;5092733;28;19915;-66
2023/07/05 04:37:27;;;;;;;;;;;22.10;94.40;;;;;;5092752;28;20353;-65
2023/07/05 04:39:53;;;;;;;;;;;22.10;94.40;;;;;;5092708;28;19916;-63
2023/07/05 04:42:20;;;;;;;;;;;22.10;94.50;;;;;;5092538;28;19919;-65
2023/07/05 04:44:46;;;;;;;;;;;22.10;94.90;;;;;;5092776;28;19921;-67
2023/07/05 04:47:13;;;;;;;;;;;22.10;94.90;;;;;;5092912;28;20372;-65
2023/07/05 04:49:40;;;;;;;;;;;22.10;94.70;;;;;;5092431;28;19961;-65
2023/07/05 04:52:07;;;;;;;;;;;22.00;95.00;;;;;;5091643;28;19908;-65
2023/07/05 04:54:33;;;;;;;;;;;21.80;95.30;;;;;;5092495;28;20000;-66
2023/07/05 04:57:00;;;;;;;;;;;21.90;95.60;;;;;;5092273;28;19908;-64
2023/07/05 04:59:28;;;;;;;;;;;22.00;95.50;;;;;;5092469;28;19916;-64
2023/07/05 05:01:54;;;;;;;;;;;22.10;95.10;;;;;;5092580;28;19924;-66
2023/07/05 05:04:21;;;;;;;;;;;22.20;95.00;;;;;;5093548;28;19908;-64
2023/07/05 05:06:48;;;;;;;;;;;22.30;95.10;;;;;;5096088;28;20002;-65
2023/07/05 05:09:14;;;;;;;;;;;22.30;94.50;;;;;;5096408;28;20395;-64
2023/07/05 05:11:41;;;;;;;;;;;22.20;94.70;;;;;;5096093;28;19930;-66
2023/07/05 05:14:08;;;;;;;;;;;22.10;94.90;;;;;;5096232;28;19916;-65
2023/07/05 05:16:34;;;;;;;;;;;22.20;95.30;;;;;;5096154;28;20007;-65
2023/07/05 05:19:01;;;;;;;;;;;22.30;94.90;;;;;;5096223;28;19908;-64
2023/07/05 05:21:27;;;;;;;;;;;22.40;95.00;;;;;;5095941;28;19916;-64
2023/07/05 05:23:54;;;;;;;;;;;22.40;94.00;;;;;;5095896;28;19966;-65
2023/07/05 05:26:21;;;;;;;;;;;22.20;94.40;;;;;;5095964;28;19912;-64
2023/07/05 05:28:47;;;;;;;;;;;22.00;94.60;;;;;;5095992;28;20254;-64
2023/07/05 05:31:14;;;;;;;;;;;22.00;95.10;;;;;;5095619;28;19912;-66
2023/07/05 05:33:41;;;;;;;;;;;21.90;95.00;;;;;;5095826;28;19913;-67
2023/07/05 05:36:07;;;;;;;;;;;21.90;95.10;;;;;;5095729;28;20314;-68
2023/07/05 05:38:35;;;;;;;;;;;22.00;95.30;;;;;;5095782;28;20353;-67
2023/07/05 05:41:02;;;;;;;;;;;22.20;95.10;;;;;;5095651;28;19966;-68
2023/07/05 05:43:29;;;;;;;;;;;22.30;94.80;;;;;;5095752;28;19908;-66
2023/07/05 05:45:56;;;;;;;;;;;22.60;94.60;;;;;;5095580;28;20431;-65
2023/07/05 05:48:23;;;;;;;;;;;22.80;94.20;;;;;;5095546;28;19916;-68
2023/07/05 05:50:50;;;;;;;;;;;22.80;93.90;;;;;;5095411;28;19908;-64
2023/07/05 05:53:16;;;;;;;;;;;22.80;93.90;;;;;;5095407;28;19916;-65
2023/07/05 05:55:43;;;;;;;;;;;22.80;94.20;;;;;;5095222;28;20388;-67
2023/07/05 05:58:09;;;;;;;;;;;22.80;94.00;;;;;;5095203;28;19914;-65
2023/07/05 06:00:37;;;;;;;;;;;22.70;94.00;;;;;;5095262;28;19965;-66
2023/07/05 06:03:05;;;;;;;;;;;22.50;94.20;;;;;;5095447;28;20322;-69
2023/07/05 06:05:32;;;;;;;;;;;22.10;94.90;;;;;;5095202;28;19963;-64
2023/07/05 06:07:58;;;;;;;;;;;21.80;95.50;;;;;;5095033;28;19908;-65
2023/07/05 06:10:25;;;;;;;;;;;21.50;96.20;;;;;;5095060;28;20280;-66
2023/07/05 06:12:52;;;;;;;;;;;21.20;96.50;;;;;;5095296;28;20281;-68
2023/07/05 06:15:18;;;;;;;;;;;20.90;97.00;;;;;;5094632;28;19908;-67
2023/07/05 06:17:45;;;;;;;;;;;20.70;97.60;;;;;;5094489;28;19931;-67
2023/07/05 06:20:14;;;;;;;;;;;20.50;98.10;;;;;;5094750;28;19916;-66
2023/07/05 06:22:40;;;;;;;;;;;20.30;98.60;;;;;;5094617;28;20011;-69
2023/07/05 06:25:10;;;;;;;;;;;20.20;98.80;;;;;;5094905;28;19966;-65
2023/07/05 06:27:36;;;;;;;;;;;20.00;99.20;;;;;;5094810;28;19908;-65
2023/07/05 06:30:03;;;;;;;;;;;19.90;99.50;;;;;;5094571;28;19931;-67
2023/07/05 06:32:32;;;;;;;;;;;19.80;99.90;;;;;;5094241;28;19997;-63
2023/07/05 06:34:59;;;;;;;;;;;19.70;99.90;;;;;;5094663;28;19915;-67
2023/07/05 06:37:25;;;;;;;;;;;19.60;99.90;;;;;;5094739;28;19904;-65
2023/07/05 06:39:52;;;;;;;;;;;19.50;99.90;;;;;;5094608;28;19934;-64
2023/07/05 06:42:19;;;;;;;;;;;19.50;99.80;;;;;;5094637;28;20015;-67
2023/07/05 06:44:45;;;;;;;;;;;19.30;99.90;;;;;;5094103;28;19921;-68
2023/07/05 06:47:12;;;;;;;;;;;19.30;99.90;;;;;;5094340;28;19908;-66
2023/07/05 06:49:38;;;;;;;;;;;19.30;99.90;;;;;;5094287;28;20360;-66
2023/07/05 06:52:06;;;;;;;;;;;19.20;99.90;;;;;;5094261;28;19927;-67
2023/07/05 06:54:32;;;;;;;;;;;19.10;99.90;;;;;;5094281;28;20364;-65
2023/07/05 06:57:00;;;;;;;;;;;19.10;99.90;;;;;;5094289;28;20274;-65
2023/07/05 06:59:27;;;;;;;;;;;19.00;99.90;;;;;;5094067;28;20423;-68
2023/07/05 07:01:53;;;;;;;;;;;19.00;99.90;;;;;;5094079;28;19920;-65
2023/07/05 07:04:20;;;;;;;;;;;18.90;99.90;;;;;;5093874;28;19909;-66
2023/07/05 07:06:47;;;;;;;;;;;18.90;99.90;;;;;;5093927;28;19908;-66
2023/07/05 07:09:13;;;;;;;;;;;18.80;99.90;;;;;;5093793;28;19908;-64
2023/07/05 07:11:41;;;;;;;;;;;18.80;99.90;;;;;;5094000;28;20275;-65
2023/07/05 07:14:08;;;;;;;;;;;18.70;99.90;;;;;;5093951;28;20357;-66
2023/07/05 07:16:35;;;;;;;;;;;18.70;99.90;;;;;;5093867;28;19923;-66
2023/07/05 07:19:01;;;;;;;;;;;18.60;99.90;;;;;;5093645;28;19908;-65
2023/07/05 07:21:28;;;;;;;;;;;18.60;99.90;;;;;;5093652;28;20361;-66
2023/07/05 07:23:54;;;;;;;;;;;18.60;99.90;;;;;;5093983;28;19908;-66
2023/07/05 07:26:22;;;;;;;;;;;18.60;99.90;;;;;;5093555;28;19908;-65
2023/07/05 07:28:51;;;;;;;;;;;18.50;99.90;;;;;;5093217;28;19950;-66
2023/07/05 07:31:20;;;;;;;;;;;18.50;99.90;;;;;;5093632;28;19917;-66
2023/07/05 07:33:47;;;;;;;;;;;18.50;99.90;;;;;;5093599;28;19908;-68
2023/07/05 07:36:15;;;;;;;;;;;18.40;99.90;;;;;;5093277;28;19908;-67
2023/07/05 07:38:42;;;;;;;;;;;18.40;99.90;;;;;;5093330;28;20396;-65
2023/07/05 07:41:13;;;;;;;;;;;18.30;99.90;;;;;;5093595;28;19916;-67
2023/07/05 07:43:40;;;;;;;;;;;18.20;99.90;;;;;;5093222;28;20388;-66
2023/07/05 07:46:11;;;;;;;;;;;18.10;99.90;;;;;;5093307;28;20366;-66
2023/07/05 07:48:39;;;;;;;;;;;18.00;99.90;;;;;;5093319;28;19919;-64
2023/07/05 07:51:06;;;;;;;;;;;18.00;99.90;;;;;;5092998;28;19912;-65
2023/07/05 07:53:32;;;;;;;;;;;17.80;99.90;;;;;;5093174;28;19955;-65
2023/07/05 07:55:59;;;;;;;;;;;17.70;99.90;;;;;;5093311;28;19908;-66
2023/07/05 07:58:25;;;;;;;;;;;17.70;99.90;;;;;;5093301;28;19908;-65
2023/07/05 08:00:53;;;;;;;;;;;17.60;99.90;;;;;;5092910;28;19920;-64
2023/07/05 08:03:19;;;;;;;;;;;17.50;99.90;;;;;;5092939;28;19921;-64
2023/07/05 08:05:50;;;;;;;;;;;17.40;99.90;;;;;;5093064;28;20379;-66
2023/07/05 08:08:16;;;;;;;;;;;17.40;99.90;;;;;;5093029;28;19908;-65
2023/07/05 08:10:43;;;;;;;;;;;17.30;99.90;;;;;;5093024;28;19908;-65
2023/07/05 08:13:09;;;;;;;;;;;17.20;99.90;;;;;;5092845;28;19916;-66
2023/07/05 08:15:36;;;;;;;;;;;17.30;99.90;;;;;;5092939;28;19908;-65
2023/07/05 08:18:03;;;;;;;;;;;17.20;99.90;;;;;;5092786;28;20303;-65
2023/07/05 08:20:29;;;;;;;;;;;17.20;99.90;;;;;;5092495;28;19912;-65
2023/07/05 08:22:56;;;;;;;;;;;17.20;99.90;;;;;;5093087;28;19953;-66
2023/07/05 08:25:23;;;;;;;;;;;17.20;99.90;;;;;;5092868;28;19962;-65
2023/07/05 08:27:49;;;;;;;;;;;17.20;99.90;;;;;;5092592;28;19912;-64
2023/07/05 08:30:16;;;;;;;;;;;17.20;99.90;;;;;;5092745;28;20331;-64
2023/07/05 08:32:42;;;;;;;;;;;17.10;99.90;;;;;;5092747;28;19909;-65
2023/07/05 08:35:09;;;;;;;;;;;17.10;99.90;;;;;;5092744;28;19916;-65
2023/07/05 08:37:36;;;;;;;;;;;17.10;99.90;;;;;;5092729;28;19908;-65
2023/07/05 08:40:03;;;;;;;;;;;17.10;99.90;;;;;;5094639;28;19946;-66
2023/07/05 08:42:37;;;;;;;;;;;17.10;99.90;;;;;;5096705;28;19935;-65
2023/07/05 08:45:12;;;;;;;;;;;17.10;99.90;;;;;;5096271;28;20007;-66
2023/07/05 08:47:53;;;;;;;;;;;17.10;99.90;;;;;;5096562;28;19908;-65
2023/07/05 08:50:24;;;;;;;;;;;17.10;99.90;;;;;;5096584;28;20379;-65
2023/07/05 08:52:54;;;;;;;;;;;17.10;99.90;;;;;;5096832;28;20484;-68
2023/07/05 08:55:24;;;;;;;;;;;17.10;99.90;;;;;;5078301;28;19915;-68
2023/07/05 08:57:53;;;;;;;;;;;17.10;99.90;;;;;;5096476;28;19915;-65
2023/07/05 09:00:28;;;;;;;;;;;17.20;99.90;;;;;;5095775;28;19919;-65
2023/07/05 09:02:55;;;;;;;;;;;17.20;99.90;;;;;;5096234;28;19915;-67
2023/07/05 09:05:25;;;;;;;;;;;17.20;99.90;;;;;;5096366;28;19904;-66
2023/07/05 09:07:51;;;;;;;;;;;17.30;99.90;;;;;;5096386;28;19930;-67
2023/07/05 09:10:29;;;;;;;;;;;17.40;99.90;;;;;;5096240;28;20027;-67
2023/07/05 09:13:05;;;;;;;;;;;17.30;99.90;;;;;;5096091;28;20266;-65
2023/07/05 09:15:37;;;;;;;;;;;17.30;99.90;;;;;;5096047;28;19908;-65
2023/07/05 09:18:18;;;;;;;;;;;17.40;99.90;;;;;;5096352;28;19908;-65
2023/07/05 09:20:45;;;;;;;;;;;17.40;99.90;;;;;;5096051;28;19912;-67
2023/07/05 09:23:19;;;;;;;;;;;17.40;99.90;;;;;;5096041;28;19943;-68
2023/07/05 09:25:48;;;;;;;;;;;17.40;99.90;;;;;;5096032;28;19914;-66
2023/07/05 09:28:27;;;;;;;;;;;17.40;99.90;;;;;;5095968;28;19908;-66
2023/07/05 09:30:54;;;;;;;;;;;17.40;99.90;;;;;;5095818;28;20006;-66
2023/07/05 09:33:36;;;;;;;;;;;17.40;99.90;;;;;;5077795;28;19952;-65
2023/07/05 09:36:10;;;;;;;;;;;17.30;99.90;;;;;;5096013;28;19908;-65
2023/07/05 09:38:38;;;;;;;;;;;17.30;99.90;;;;;;5095621;28;19912;-67
2023/07/05 09:41:17;;;;;;;;;;;17.30;99.90;;;;;;5095883;28;20422;-65
2023/07/05 09:43:44;;;;;;;;;;;17.30;99.90;;;;;;5096202;28;20240;-66
2023/07/05 09:46:26;;;;;;;;;;;17.20;99.90;;;;;;5077282;28;19959;-67
2023/07/05 09:48:56;;;;;;;;;;;17.10;99.90;;;;;;5095024;28;19919;-65
2023/07/05 09:51:25;;;;;;;;;;;17.10;99.90;;;;;;5095505;28;19908;-65
2023/07/05 09:53:54;;;;;;;;;;;17.10;99.90;;;;;;5077571;28;20250;-67
2023/07/05 09:56:28;;;;;;;;;;;17.10;99.90;;;;;;5095533;28;20373;-65
2023/07/05 09:59:15;;;;;;;;;;;17.00;99.90;;;;;;5095293;28;20257;-65
2023/07/05 10:01:44;;;;;;;;;;;17.00;99.90;;;;;;5095334;28;20304;-65
2023/07/05 10:04:11;;;;;;;;;;;16.90;99.90;;;;;;5095330;28;20276;-66
2023/07/05 10:06:39;;;;;;;;;;;17.00;99.90;;;;;;5095291;28;19977;-65
2023/07/05 10:09:16;;;;;;;;;;;16.90;99.90;;;;;;5095615;28;19908;-66
2023/07/05 10:11:45;;;;;;;;;;;16.90;99.90;;;;;;5076699;28;19915;-65
2023/07/05 10:14:13;;;;;;;;;;;16.80;99.90;;;;;;5077045;28;19915;-66
2023/07/05 10:16:46;;;;;;;;;;;16.80;99.90;;;;;;5095262;28;19915;-70
2023/07/05 10:19:39;;;;;;;;;;;16.70;99.90;;;;;;5095014;28;19967;-66
2023/07/05 10:22:16;;;;;;;;;;;16.70;99.90;;;;;;5092112;28;19920;-67
2023/07/05 10:24:44;;;;;;;;;;;16.60;99.90;;;;;;5094876;28;19908;-67
2023/07/05 10:27:23;;;;;;;;;;;16.60;99.90;;;;;;5094971;28;19912;-66
2023/07/05 10:29:57;;;;;;;;;;;16.50;99.90;;;;;;5094863;28;20377;-67
2023/07/05 10:32:24;;;;;;;;;;;16.40;99.90;;;;;;5094708;28;19908;-67
2023/07/05 10:34:51;;;;;;;;;;;16.30;99.90;;;;;;5076498;28;19973;-65
2023/07/05 10:37:26;;;;;;;;;;;16.30;99.90;;;;;;5094309;28;19919;-69
2023/07/05 10:39:52;;;;;;;;;;;16.20;99.90;;;;;;5094593;28;20357;-66
2023/07/05 10:42:19;;;;;;;;;;;16.10;99.90;;;;;;5076375;28;19916;-68
2023/07/05 10:44:46;;;;;;;;;;;16.10;99.90;;;;;;5094354;28;19920;-66
2023/07/05 10:47:13;;;;;;;;;;;16.10;99.90;;;;;;5094312;28;19920;-65
2023/07/05 10:49:47;;;;;;;;;;;16.00;99.90;;;;;;5094412;28;19904;-69
2023/07/05 10:52:19;;;;;;;;;;;16.00;99.90;;;;;;5094558;28;19915;-68
2023/07/05 10:54:48;;;;;;;;;;;15.90;99.90;;;;;;5094502;28;19913;-67
2023/07/05 10:57:28;;;;;;;;;;;15.90;99.90;;;;;;5094236;28;19915;-67
2023/07/05 11:00:09;;;;;;;;;;;15.90;99.90;;;;;;5075831;28;19908;-68
2023/07/05 11:02:36;;;;;;;;;;;15.70;99.90;;;;;;5093684;28;19924;-68
2023/07/05 11:05:04;;;;;;;;;;;15.70;99.90;;;;;;5094132;28;19912;-67
2023/07/05 11:07:33;;;;;;;;;;;15.60;99.90;;;;;;5093955;28;19908;-67
2023/07/05 11:10:00;;;;;;;;;;;15.50;99.90;;;;;;5093778;28;20493;-66
2023/07/05 11:12:28;;;;;;;;;;;15.50;99.90;;;;;;5094287;28;19961;-68
2023/07/05 11:14:56;;;;;;;;;;;15.50;99.90;;;;;;5075742;28;19908;-68
2023/07/05 11:17:23;;;;;;;;;;;15.40;99.90;;;;;;5093737;28;19912;-68
2023/07/05 11:19:50;;;;;;;;;;;15.40;99.90;;;;;;5093505;28;19958;-67
2023/07/05 11:22:34;;;;;;;;;;;15.40;99.90;;;;;;5093832;28;19931;-67
2023/07/05 11:25:01;;;;;;;;;;;15.30;99.90;;;;;;5093707;28;20268;-67
2023/07/05 11:27:31;;;;;;;;;;;15.30;99.90;;;;;;5093986;28;20306;-67
2023/07/05 11:29:58;;;;;;;;;;;15.30;99.90;;;;;;5093656;28;19948;-65
2023/07/05 11:32:57;;;;;;;;;;;15.20;99.90;;;;;;5093722;28;20308;-69
2023/07/05 11:35:44;;;;;;;;;;;15.20;99.90;;;;;;5059761;28;19961;-69
2023/07/05 11:38:30;;;;;;;;;;;15.10;99.90;;;;;;5093438;28;19908;-65
2023/07/05 11:41:01;;;;;;;;;;;15.10;99.90;;;;;;5093362;28;20313;-66
2023/07/05 11:43:39;;;;;;;;;;;15.10;99.90;;;;;;5093362;28;19916;-65
2023/07/05 11:46:26;;;;;;;;;;;15.10;99.90;;;;;;5093189;28;19939;-65
2023/07/05 11:48:53;;;;;;;;;;;15.00;99.90;;;;;;5092936;28;19915;-65
2023/07/05 11:51:24;;;;;;;;;;;15.00;99.90;;;;;;5093246;28;19966;-65
2023/07/05 11:53:53;;;;;;;;;;;15.00;99.90;;;;;;5093008;28;19912;-66
2023/07/05 11:56:20;;;;;;;;;;;15.00;99.90;;;;;;5093019;28;20018;-65
2023/07/05 11:58:50;;;;;;;;;;;14.90;99.90;;;;;;5093108;28;19908;-65
2023/07/05 12:01:22;;;;;;;;;;;14.90;99.90;;;;;;5092983;28;19916;-66
2023/07/05 12:03:55;;;;;;;;;;;14.80;99.90;;;;;;5093181;28;19909;-64
2023/07/05 12:06:28;;;;;;;;;;;14.80;99.90;;;;;;5093104;28;20280;-64
2023/07/05 12:09:01;;;;;;;;;;;14.80;99.90;;;;;;5093121;28;19916;-64
2023/07/05 12:11:40;;;;;;;;;;;14.70;99.90;;;;;;5092968;28;19916;-66
2023/07/05 12:14:10;;;;;;;;;;;14.70;99.90;;;;;;5092010;28;20388;-65
2023/07/05 12:16:37;;;;;;;;;;;14.60;99.90;;;;;;5092789;28;19915;-65
2023/07/05 12:19:06;;;;;;;;;;;14.60;99.90;;;;;;5092929;28;19915;-65
2023/07/05 12:21:33;;;;;;;;;;;14.60;99.90;;;;;;5092765;28;19923;-65
2023/07/05 12:24:02;;;;;;;;;;;14.60;99.90;;;;;;5092881;28;19912;-64
2023/07/05 12:26:31;;;;;;;;;;;14.60;99.90;;;;;;5092892;28;19915;-64
2023/07/05 12:29:03;;;;;;;;;;;14.50;99.90;;;;;;5092713;28;19916;-66
2023/07/05 12:31:30;;;;;;;;;;;14.50;99.90;;;;;;5092592;28;20357;-64
2023/07/05 12:34:03;;;;;;;;;;;14.50;99.90;;;;;;5092454;28;19908;-65
2023/07/05 12:36:40;;;;;;;;;;;14.40;99.90;;;;;;5092827;28;20369;-64
2023/07/05 12:39:08;;;;;;;;;;;14.40;99.90;;;;;;5093264;28;19908;-64
2023/07/05 12:41:35;;;;;;;;;;;14.40;99.90;;;;;;5092676;28;19919;-65
2023/07/05 12:44:03;;;;;;;;;;;14.30;99.90;;;;;;5092342;28;19908;-64
2023/07/05 12:46:31;;;;;;;;;;;14.40;99.90;;;;;;5092432;28;19916;-64
2023/07/05 12:49:09;;;;;;;;;;;14.30;99.90;;;;;;5092641;28;19915;-64
2023/07/05 12:51:46;;;;;;;;;;;14.30;99.90;;;;;;5092628;28;19908;-65
2023/07/05 12:54:12;;;;;;;;;;;14.20;99.90;;;;;;5092476;28;19911;-64
2023/07/05 12:56:41;;;;;;;;;;;14.10;99.90;;;;;;5092675;28;20437;-64
2023/07/05 12:59:23;;;;;;;;;;;14.10;99.90;;;;;;5092225;28;19915;-64
2023/07/05 13:01:49;;;;;;;;;;;14.10;99.90;;;;;;5092567;28;19922;-64
2023/07/05 13:04:18;;;;;;;;;;;14.10;99.90;;;;;;5092732;28;19908;-64
2023/07/05 13:06:48;;;;;;;;;;;14.00;99.90;;;;;;5092406;28;19958;-64
2023/07/05 13:09:23;;;;;;;;;;;14.00;99.90;;;;;;5092238;28;19909;-65
2023/07/05 13:11:57;;;;;;;;;;;14.00;99.90;;;;;;5092929;28;20273;-65
2023/07/05 13:14:26;;;;;;;;;;;13.90;99.90;;;;;;5092502;28;19908;-65
2023/07/05 13:17:00;;;;;;;;;;;13.90;99.90;;;;;;5092482;28;19953;-66
2023/07/05 13:19:45;;;;;;;;;;;13.90;99.90;;;;;;5092495;28;19951;-65
2023/07/05 13:22:30;;;;;;;;;;;13.80;99.90;;;;;;5092222;28;19916;-65
2023/07/05 13:24:58;;;;;;;;;;;13.80;99.90;;;;;;5092626;28;19908;-65
2023/07/05 13:27:26;;;;;;;;;;;13.70;99.90;;;;;;5096127;28;19908;-66
2023/07/05 13:29:53;;;;;;;;;;;13.70;99.90;;;;;;5096006;28;19908;-66
2023/07/05 13:32:38;;;;;;;;;;;13.60;99.90;;;;;;5095732;28;20425;-64
2023/07/05 13:35:05;;;;;;;;;;;13.60;99.90;;;;;;5095885;28;19908;-64
2023/07/05 13:37:31;;;;;;;;;;;13.50;99.90;;;;;;5095813;28;20421;-64
2023/07/05 13:40:06;;;;;;;;;;;13.40;99.90;;;;;;5095711;28;19908;-64
2023/07/05 13:42:33;;;;;;;;;;;13.30;99.90;;;;;;5077357;28;19920;-64
2023/07/05 13:45:00;;;;;;;;;;;13.30;99.90;;;;;;5095672;28;19920;-65
2023/07/05 13:47:26;;;;;;;;;;;13.20;99.90;;;;;;5095716;28;19995;-65
2023/07/05 13:49:53;;;;;;;;;;;13.20;99.90;;;;;;5095606;28;20360;-65
2023/07/05 13:52:20;;;;;;;;;;;13.20;99.90;;;;;;5095696;28;19955;-63
2023/07/05 13:54:47;;;;;;;;;;;13.20;99.90;;;;;;5096153;28;20309;-67
2023/07/05 13:57:18;;;;;;;;;;;13.10;99.90;;;;;;5095585;28;19999;-68
2023/07/05 13:59:45;;;;;;;;;;;13.20;99.90;;;;;;5095552;28;19916;-68
2023/07/05 14:02:28;;;;;;;;;;;13.10;99.90;;;;;;5095433;28;19920;-66
2023/07/05 14:04:56;;;;;;;;;;;13.00;99.90;;;;;;5095548;28;19961;-68
2023/07/05 14:07:23;;;;;;;;;;;13.00;99.90;;;;;;5095478;28;19977;-64
2023/07/05 14:09:50;;;;;;;;;;;13.00;99.90;;;;;;5095256;28;19908;-66
2023/07/05 14:12:17;;;;;;;;;;;12.90;99.90;;;;;;5095267;28;19912;-67
2023/07/05 14:14:44;;;;;;;;;;;12.90;99.90;;;;;;5095396;28;19916;-68
2023/07/05 14:17:15;;;;;;;;;;;12.80;99.90;;;;;;5095007;28;19908;-64
2023/07/05 14:19:42;;;;;;;;;;;12.80;99.90;;;;;;5076589;28;20363;-67
2023/07/05 14:22:15;;;;;;;;;;;12.70;99.90;;;;;;5094949;28;19916;-65
2023/07/05 14:24:42;;;;;;;;;;;12.70;99.90;;;;;;5095012;28;19961;-69
2023/07/05 14:27:34;;;;;;;;;;;12.60;99.90;;;;;;5094851;28;19916;-68
2023/07/05 14:30:01;;;;;;;;;;;12.70;99.90;;;;;;5091782;28;19953;-68